Time;durP1;ratioP1;P1;durP2;ratioP2;P2;SDS_P1;SDS_P2;PMS_P1;PMS_P2;Temp;Humidity;BMP_temperature;BMP_pressure;BME280_temperature;BME280_humidity;BME280_pressure;Samples;Min_cycle;Max_cycle;Signal;HPM_P1;HPM_P2
2021/06/11 00:00:58;;;;;;;;;0.00;0.00;;;;;22.55;51.70;101533.31;5124284;27;45398;-64
2021/06/11 00:03:23;;;;;;;;;0.00;0.00;;;;;22.50;51.54;101534.72;5123885;27;46638;-63
2021/06/11 00:05:48;;;;;;;;;0.00;0.00;;;;;22.48;51.58;101531.38;5124446;27;45325;-63
2021/06/11 00:08:14;;;;;;;;;0.00;0.00;;;;;22.47;51.59;101531.56;5124225;27;45607;-63
2021/06/11 00:10:40;;;;;;;;;0.00;0.00;;;;;22.49;52.02;101538.41;5124203;27;45463;-63
2021/06/11 00:13:06;;;;;;;;;0.00;0.00;;;;;22.44;51.64;101538.09;5109961;27;46387;-63
2021/06/11 00:15:32;;;;;;;;;0.00;0.00;;;;;22.42;51.95;101536.59;5124100;27;45151;-63
2021/06/11 00:17:57;;;;;;;;;0.00;0.00;;;;;22.39;52.02;101532.44;5124047;27;46303;-63
2021/06/11 00:20:24;;;;;;;;;0.00;0.00;;;;;22.31;52.13;101530.66;5124440;27;45461;-63
2021/06/11 00:22:50;;;;;;;;;0.00;0.00;;;;;22.30;51.84;101534.34;5123772;27;45749;-64
2021/06/11 00:25:22;;;;;;;;;0.00;0.00;;;;;22.28;51.99;101530.19;5123649;27;45331;-64
2021/06/11 00:27:47;;;;;;;;;0.00;0.00;;;;;22.23;52.49;101535.22;5123931;27;45407;-64
2021/06/11 00:30:13;;;;;;;;;0.00;0.00;;;;;22.22;52.13;101528.16;5123691;27;45197;-63
2021/06/11 00:32:39;;;;;;;;;0.00;0.00;;;;;22.20;52.16;101530.19;5123101;27;45152;-63
2021/06/11 00:35:06;;;;;;;;;0.00;0.00;;;;;22.16;51.95;101528.88;5123712;27;45596;-63
2021/06/11 00:37:32;;;;;;;;;0.00;0.00;;;;;22.15;51.86;101537.91;5123911;27;45270;-63
2021/06/11 00:39:58;;;;;;;;;0.00;0.00;;;;;22.15;52.02;101535.25;5123637;27;45600;-64
2021/06/11 00:42:23;;;;;;;;;0.00;0.00;;;;;22.14;51.92;101529.06;5123243;27;46546;-63
2021/06/11 00:44:49;;;;;;;;;0.00;0.00;;;;;22.12;51.94;101525.72;5123360;27;45530;-63
2021/06/11 00:47:14;;;;;;;;;0.00;0.00;;;;;22.15;52.17;101532.56;5123599;27;45341;-63
2021/06/11 00:49:39;;;;;;;;;0.00;0.00;;;;;22.13;52.03;101530.06;5123642;27;45535;-63
2021/06/11 00:52:07;;;;;;;;;0.00;0.00;;;;;22.11;52.20;101534.75;5123139;27;45258;-63
2021/06/11 00:54:34;;;;;;;;;0.00;0.00;;;;;22.08;51.94;101532.44;5104644;27;45355;-62
2021/06/11 00:56:59;;;;;;;;;0.00;0.00;;;;;22.08;51.85;101532.44;5123560;27;45250;-62
2021/06/11 00:59:26;;;;;;;;;0.00;0.00;;;;;22.10;51.84;101530.44;5123425;27;45415;-63
2021/06/11 01:01:52;;;;;;;;;0.00;0.00;;;;;22.09;51.56;101526.06;5123251;27;46810;-62
2021/06/11 01:04:17;;;;;;;;;0.00;0.00;;;;;22.04;51.95;101531.94;5123146;27;45301;-63
2021/06/11 01:06:43;;;;;;;;;0.00;0.00;;;;;22.04;52.05;101528.44;5122466;27;45293;-63
2021/06/11 01:09:11;;;;;;;;;0.00;0.00;;;;;22.00;51.80;101532.47;5123423;27;45493;-63
2021/06/11 01:11:41;;;;;;;;;0.00;0.00;;;;;22.00;51.98;101525.28;5117333;27;46969;-64
2021/06/11 01:14:07;;;;;;;;;0.00;0.00;;;;;21.94;52.45;101527.81;5115577;27;45478;-64
2021/06/11 01:16:32;;;;;;;;;0.00;0.00;;;;;21.88;52.04;101526.69;5123351;27;45328;-64
2021/06/11 01:18:59;;;;;;;;;0.00;0.00;;;;;21.86;52.27;101526.03;5104862;27;45328;-63
2021/06/11 01:21:30;;;;;;;;;0.00;0.00;;;;;21.82;52.25;101530.06;5122886;27;45586;-62
2021/06/11 01:24:16;;;;;;;;;0.00;0.00;;;;;21.78;52.31;101521.53;5122321;27;45482;-63
2021/06/11 01:26:49;;;;;;;;;0.00;0.00;;;;;21.78;52.19;101520.72;5123200;27;45429;-63
2021/06/11 01:29:17;;;;;;;;;0.00;0.00;;;;;21.77;52.37;101522.56;5123093;27;45515;-63
2021/06/11 01:31:50;;;;;;;;;0.00;0.00;;;;;21.75;52.45;101516.56;5122799;27;46441;-63
2021/06/11 01:34:21;;;;;;;;;0.00;0.00;;;;;21.72;52.66;101524.91;5122561;27;45306;-63
2021/06/11 01:36:50;;;;;;;;;0.00;0.00;;;;;21.67;52.61;101528.09;5122866;27;45231;-64
2021/06/11 01:39:19;;;;;;;;;0.00;0.00;;;;;21.63;52.61;101529.47;5104036;27;45440;-63
2021/06/11 01:41:45;;;;;;;;;0.00;0.00;;;;;21.61;52.64;101520.78;5103702;27;47249;-63
2021/06/11 01:44:12;;;;;;;;;0.00;0.00;;;;;21.61;52.99;101522.63;5122605;27;45257;-63
2021/06/11 01:46:40;;;;;;;;;0.00;0.00;;;;;21.56;53.41;101515.13;5122983;27;45380;-63
2021/06/11 01:49:06;;;;;;;;;0.00;0.00;;;;;21.54;53.28;101517.13;5123081;27;45700;-64
2021/06/11 01:51:34;;;;;;;;;0.00;0.00;;;;;21.53;53.16;101514.63;5122390;27;46459;-62
2021/06/11 01:54:02;;;;;;;;;0.00;0.00;;;;;21.54;53.15;101518.97;5122282;27;45479;-63
2021/06/11 01:56:28;;;;;;;;;0.00;0.00;;;;;21.52;53.06;101516.47;5122812;27;45331;-63
2021/06/11 01:58:54;;;;;;;;;0.00;0.00;;;;;21.50;53.03;101511.28;5122221;27;45500;-64
2021/06/11 02:01:22;;;;;;;;;0.00;0.00;;;;;21.48;53.11;101502.59;5122481;27;46727;-63
2021/06/11 02:03:50;;;;;;;;;0.00;0.00;;;;;21.50;53.16;101503.28;5103974;27;45425;-63
2021/06/11 02:06:17;;;;;;;;;0.00;0.00;;;;;21.53;53.17;101502.09;5122694;27;45370;-63
2021/06/11 02:08:48;;;;;;;;;0.00;0.00;;;;;21.49;53.42;101501.63;5122933;27;45532;-63
2021/06/11 02:11:14;;;;;;;;;0.00;0.00;;;;;21.46;53.10;101499.28;5101473;27;46364;-63
2021/06/11 02:13:42;;;;;;;;;0.00;0.00;;;;;21.44;53.49;101503.94;5110782;27;45253;-63
2021/06/11 02:16:10;;;;;;;;;0.00;0.00;;;;;21.42;53.22;101500.63;5122258;27;45244;-63
2021/06/11 02:18:36;;;;;;;;;0.00;0.00;;;;;21.41;53.20;101495.44;5105599;27;45558;-63
2021/06/11 02:21:06;;;;;;;;;0.00;0.00;;;;;21.38;53.67;101495.75;5125986;27;47825;-63
2021/06/11 02:23:33;;;;;;;;;0.00;0.00;;;;;21.35;53.91;101501.47;5125484;27;45349;-63
2021/06/11 02:26:03;;;;;;;;;0.00;0.00;;;;;21.30;53.93;101496.63;5125954;27;45242;-63
2021/06/11 02:28:29;;;;;;;;;0.00;0.00;;;;;21.27;53.69;101496.97;5126002;27;45551;-64
2021/06/11 02:30:57;;;;;;;;;0.00;0.00;;;;;21.25;53.76;101493.63;5126060;27;46160;-62
2021/06/11 02:33:23;;;;;;;;;0.00;0.00;;;;;21.25;53.68;101497.16;5126069;27;45246;-63
2021/06/11 02:35:48;;;;;;;;;0.00;0.00;;;;;21.24;53.49;101497.31;5125956;27;45295;-63
2021/06/11 02:38:14;;;;;;;;;0.00;0.00;;;;;21.23;53.90;101498.31;5125927;27;45217;-63
2021/06/11 02:40:39;;;;;;;;;0.00;0.00;;;;;21.20;53.68;101499.47;5124774;27;46116;-62
2021/06/11 02:43:10;;;;;;;;;0.00;0.00;;;;;21.20;53.75;101491.47;5125560;27;46407;-63
2021/06/11 02:46:06;;;;;;;;;0.00;0.00;;;;;21.18;53.89;101489.97;5125658;27;45288;-63
2021/06/11 02:48:35;;;;;;;;;0.00;0.00;;;;;21.15;53.72;101495.66;5089496;27;45234;-63
2021/06/11 02:51:20;;;;;;;;;0.00;0.00;;;;;21.15;54.73;101493.00;5125687;27;45354;-63
2021/06/11 02:53:47;;;;;;;;;0.00;0.00;;;;;21.11;54.21;101484.47;5125355;27;45264;-64
2021/06/11 02:56:18;;;;;;;;;0.00;0.00;;;;;21.08;54.44;101485.66;5125247;27;45305;-63
2021/06/11 02:59:00;;;;;;;;;0.00;0.00;;;;;21.05;54.39;101477.97;5125335;27;45244;-63
2021/06/11 03:01:28;;;;;;;;;0.00;0.00;;;;;21.03;54.57;101471.97;5125177;27;46370;-62
2021/06/11 03:03:57;;;;;;;;;0.00;0.00;;;;;21.05;54.27;101480.66;5125574;27;45245;-62
2021/06/11 03:06:24;;;;;;;;;0.00;0.00;;;;;21.05;53.64;101471.81;5125304;27;45394;-63
2021/06/11 03:08:50;;;;;;;;;0.00;0.00;;;;;21.06;54.70;101481.50;5125521;27;45368;-63
2021/06/11 03:11:20;;;;;;;;;0.00;0.00;;;;;21.01;54.25;101476.66;5122146;27;46117;-63
2021/06/11 03:13:48;;;;;;;;;0.00;0.00;;;;;21.00;54.62;101483.00;5115046;27;45464;-63
2021/06/11 03:16:14;;;;;;;;;0.00;0.00;;;;;20.99;54.84;101475.16;5124989;27;45338;-63
2021/06/11 03:18:46;;;;;;;;;0.00;0.00;;;;;20.97;54.55;101477.16;5125015;27;45364;-64
2021/06/11 03:21:34;;;;;;;;;0.00;0.00;;;;;20.95;55.23;101476.50;5124850;27;45553;-63
2021/06/11 03:24:11;;;;;;;;;0.00;0.00;;;;;20.89;55.65;101481.50;5124323;27;45320;-63
2021/06/11 03:26:49;;;;;;;;;0.00;0.00;;;;;20.82;56.05;101466.31;5125144;27;45233;-63
2021/06/11 03:29:26;;;;;;;;;0.00;0.00;;;;;20.70;56.92;101476.53;5124825;27;45448;-63
2021/06/11 03:31:55;;;;;;;;;0.00;0.00;;;;;20.64;56.21;101475.34;5124289;27;46588;-63
2021/06/11 03:34:26;;;;;;;;;0.00;0.00;;;;;20.61;56.97;101473.03;5124575;27;45317;-63
2021/06/11 03:36:55;;;;;;;;;0.00;0.00;;;;;20.58;56.66;101480.53;5105780;27;45500;-63
2021/06/11 03:39:28;;;;;;;;;0.00;0.00;;;;;20.52;56.74;101489.16;5111537;27;45375;-63
2021/06/11 03:41:54;;;;;;;;;0.00;0.00;;;;;20.45;57.23;101481.84;5124465;27;47518;-63
2021/06/11 03:44:21;;;;;;;;;0.00;0.00;;;;;20.42;56.43;101490.16;5124522;27;45324;-63
2021/06/11 03:46:47;;;;;;;;;0.00;0.00;;;;;20.41;56.59;101479.66;5124806;27;45229;-63
2021/06/11 03:49:15;;;;;;;;;0.00;0.00;;;;;20.40;57.05;101478.81;5125213;27;45213;-63
2021/06/11 03:51:43;;;;;;;;;0.00;0.00;;;;;20.40;56.71;101484.16;5124391;27;45395;-63
2021/06/11 03:54:12;;;;;;;;;0.00;0.00;;;;;20.39;56.96;101487.84;5124440;27;45402;-63
2021/06/11 03:56:39;;;;;;;;;0.00;0.00;;;;;20.38;56.67;101493.34;5124630;27;45330;-63
2021/06/11 03:59:10;;;;;;;;;0.00;0.00;;;;;20.34;57.18;101487.47;5124753;27;45337;-63
2021/06/11 04:01:44;;;;;;;;;0.00;0.00;;;;;20.29;57.87;101489.81;5124344;27;45551;-63
2021/06/11 04:04:09;;;;;;;;;0.00;0.00;;;;;20.26;57.91;101487.50;5124226;27;45335;-63
2021/06/11 04:06:43;;;;;;;;;0.00;0.00;;;;;20.26;57.36;101487.50;5124125;27;45304;-63
2021/06/11 04:09:11;;;;;;;;;0.00;0.00;;;;;20.27;58.12;101478.47;5124203;27;45334;-63
2021/06/11 04:11:43;;;;;;;;;0.00;0.00;;;;;20.29;57.50;101482.66;5118244;27;45643;-62
2021/06/11 04:14:12;;;;;;;;;0.00;0.00;;;;;20.31;57.73;101489.66;5116236;27;45580;-63
2021/06/11 04:16:46;;;;;;;;;0.00;0.00;;;;;20.31;57.42;101492.34;5124356;27;45470;-64
2021/06/11 04:19:25;;;;;;;;;0.00;0.00;;;;;20.36;57.73;101490.00;5124128;27;45201;-63
2021/06/11 04:21:53;;;;;;;;;0.00;0.00;;;;;20.37;57.66;101489.84;5124028;27;45482;-62
2021/06/11 04:24:26;;;;;;;;;0.00;0.00;;;;;20.40;57.52;101494.00;5123574;27;45372;-63
2021/06/11 04:26:53;;;;;;;;;0.00;0.00;;;;;20.39;56.99;101486.97;5124127;27;45275;-62
2021/06/11 04:29:21;;;;;;;;;0.00;0.00;;;;;20.42;57.44;101490.16;5123913;27;45541;-62
2021/06/11 04:31:46;;;;;;;;;0.00;0.00;;;;;20.43;56.87;101488.31;5104574;27;47171;-63
2021/06/11 04:34:16;;;;;;;;;0.00;0.00;;;;;20.47;56.71;101495.84;5123623;27;45266;-64
2021/06/11 04:36:43;;;;;;;;;0.00;0.00;;;;;20.51;56.80;101499.00;5123670;27;45475;-63
2021/06/11 04:39:09;;;;;;;;;0.00;0.00;;;;;20.56;56.48;101499.38;5123392;27;45342;-63
2021/06/11 04:41:35;;;;;;;;;0.00;0.00;;;;;20.61;56.43;101502.38;5122020;27;45387;-63
2021/06/11 04:44:02;;;;;;;;;0.00;0.00;;;;;20.69;56.23;101504.22;5123364;27;45339;-63
2021/06/11 04:46:28;;;;;;;;;0.00;0.00;;;;;20.76;55.95;101504.41;5123605;27;45301;-64
2021/06/11 04:48:54;;;;;;;;;0.00;0.00;;;;;20.80;55.73;101506.56;5123744;27;46534;-63
2021/06/11 04:51:20;;;;;;;;;0.00;0.00;;;;;20.85;55.83;101498.03;5104826;27;45290;-63
2021/06/11 04:53:45;;;;;;;;;0.00;0.00;;;;;20.86;55.74;101494.34;5122579;27;45542;-63
2021/06/11 04:56:12;;;;;;;;;0.00;0.00;;;;;20.90;56.03;101491.19;5123740;27;45444;-63
2021/06/11 04:58:38;;;;;;;;;0.00;0.00;;;;;20.94;55.67;101496.19;5123160;27;45430;-63
2021/06/11 05:01:05;;;;;;;;;0.00;0.00;;;;;20.96;55.33;101500.38;5123134;27;45813;-63
2021/06/11 05:03:31;;;;;;;;;0.00;0.00;;;;;20.98;55.41;101502.88;5122905;27;45352;-63
2021/06/11 05:05:57;;;;;;;;;0.00;0.00;;;;;20.98;55.37;101501.03;5123295;27;45260;-62
2021/06/11 05:08:22;;;;;;;;;0.00;0.00;;;;;21.05;55.43;101498.50;5123333;27;45249;-63
2021/06/11 05:10:48;;;;;;;;;0.00;0.00;;;;;21.05;55.12;101493.16;5122399;27;46203;-64
2021/06/11 05:13:13;;;;;;;;;0.00;0.00;;;;;21.07;55.35;101499.19;5108668;27;45195;-63
2021/06/11 05:15:39;;;;;;;;;0.00;0.00;;;;;21.13;55.42;101509.19;5123139;27;45159;-62
2021/06/11 05:18:06;;;;;;;;;0.00;0.00;;;;;21.14;55.38;101508.16;5122876;27;45232;-63
2021/06/11 05:20:32;;;;;;;;;0.00;0.00;;;;;21.17;55.13;101507.84;5104184;27;48341;-64
2021/06/11 05:22:57;;;;;;;;;0.00;0.00;;;;;21.19;54.95;101502.34;5122458;27;45288;-62
2021/06/11 05:25:23;;;;;;;;;0.00;0.00;;;;;21.20;55.24;101512.00;5103958;27;45283;-63
2021/06/11 05:27:48;;;;;;;;;0.00;0.00;;;;;21.20;55.01;101514.69;5122933;27;46236;-64
2021/06/11 05:30:14;;;;;;;;;0.00;0.00;;;;;21.23;55.01;101512.50;5122251;27;45484;-64
2021/06/11 05:32:40;;;;;;;;;0.00;0.00;;;;;21.22;54.80;101516.19;5122640;27;45384;-63
2021/06/11 05:35:06;;;;;;;;;0.00;0.00;;;;;21.26;54.77;101522.03;5122695;27;45262;-64
2021/06/11 05:37:31;;;;;;;;;0.00;0.00;;;;;21.30;54.95;101523.34;5122799;27;45264;-63
2021/06/11 05:39:56;;;;;;;;;0.00;0.00;;;;;21.34;54.57;101524.69;5122153;27;45341;-63
2021/06/11 05:42:22;;;;;;;;;0.00;0.00;;;;;21.32;54.81;101521.34;5122197;27;45423;-64
2021/06/11 05:44:47;;;;;;;;;0.00;0.00;;;;;21.39;54.47;101529.50;5121682;27;45240;-64
2021/06/11 05:47:12;;;;;;;;;0.00;0.00;;;;;21.44;54.69;101532.53;5122014;27;45176;-64
2021/06/11 05:49:38;;;;;;;;;0.00;0.00;;;;;21.50;54.77;101538.00;5125090;27;45298;-64
2021/06/11 05:52:03;;;;;;;;;0.00;0.00;;;;;21.54;54.64;101535.84;5105383;27;45217;-64
2021/06/11 05:54:29;;;;;;;;;0.00;0.00;;;;;21.60;54.58;101535.16;5100422;27;45237;-64
2021/06/11 05:56:56;;;;;;;;;0.00;0.00;;;;;21.68;54.22;101536.94;5119888;27;45160;-64
2021/06/11 05:59:22;;;;;;;;;0.00;0.00;;;;;21.75;54.40;101545.13;5121861;27;46216;-64
2021/06/11 06:01:47;;;;;;;;;0.00;0.00;;;;;21.84;53.97;101539.56;5121750;27;45428;-63
2021/06/11 06:04:12;;;;;;;;;0.00;0.00;;;;;21.90;53.70;101546.91;5121755;27;45254;-64
2021/06/11 06:06:38;;;;;;;;;0.00;0.00;;;;;21.97;54.07;101547.03;5121905;27;45419;-63
2021/06/11 06:09:04;;;;;;;;;0.00;0.00;;;;;22.11;53.90;101542.78;5121588;27;46398;-64
2021/06/11 06:11:29;;;;;;;;;0.00;0.00;;;;;22.43;53.47;101547.13;5116843;27;45263;-64
2021/06/11 06:13:54;;;;;;;;;0.00;0.00;;;;;22.88;52.72;101545.44;5112319;27;45564;-63
2021/06/11 06:16:20;;;;;;;;;0.00;0.00;;;;;23.37;52.02;101546.88;5122069;27;45255;-64
2021/06/11 06:18:45;;;;;;;;;0.00;0.00;;;;;23.86;51.01;101554.34;5121806;27;45285;-64
2021/06/11 06:21:11;;;;;;;;;0.00;0.00;;;;;24.34;49.90;101556.56;5121637;27;46305;-63
2021/06/11 06:23:36;;;;;;;;;0.00;0.00;;;;;24.83;49.00;101555.84;5120848;27;45244;-64
2021/06/11 06:26:02;;;;;;;;;0.00;0.00;;;;;25.35;48.41;101559.97;5121279;27;45203;-63
2021/06/11 06:28:27;;;;;;;;;0.00;0.00;;;;;25.87;47.06;101552.38;5121490;27;45246;-63
2021/06/11 06:30:52;;;;;;;;;0.00;0.00;;;;;26.20;46.00;101549.03;5121440;27;45453;-64
2021/06/11 06:33:18;;;;;;;;;0.00;0.00;;;;;26.42;45.62;101551.56;5121817;27;45198;-64
2021/06/11 06:35:43;;;;;;;;;0.00;0.00;;;;;26.66;45.09;101553.69;5121790;27;45459;-64
2021/06/11 06:38:10;;;;;;;;;0.00;0.00;;;;;26.93;44.33;101548.28;5120933;27;45214;-63
2021/06/11 06:40:36;;;;;;;;;0.00;0.00;;;;;27.04;44.62;101553.09;5120596;27;45450;-64
2021/06/11 06:43:03;;;;;;;;;0.00;0.00;;;;;27.06;44.14;101558.25;5121227;27;45469;-64
2021/06/11 06:45:28;;;;;;;;;0.00;0.00;;;;;27.04;43.32;101554.91;5121206;27;45467;-64
2021/06/11 06:47:54;;;;;;;;;0.00;0.00;;;;;27.03;43.37;101559.50;5120813;27;45223;-64
2021/06/11 06:50:20;;;;;;;;;0.00;0.00;;;;;27.09;42.86;101555.16;5121020;27;45286;-64
2021/06/11 06:52:45;;;;;;;;;0.00;0.00;;;;;27.28;42.85;101554.31;5120772;27;45437;-64
2021/06/11 06:55:12;;;;;;;;;0.00;0.00;;;;;27.52;42.54;101560.06;5121268;27;45551;-64
2021/06/11 06:57:37;;;;;;;;;0.00;0.00;;;;;27.69;41.64;101552.31;5120784;27;45435;-65
2021/06/11 07:00:05;;;;;;;;;0.00;0.00;;;;;27.75;41.19;101559.56;5120832;27;45180;-64
2021/06/11 07:02:30;;;;;;;;;0.00;0.00;;;;;27.94;41.25;101553.28;5120768;27;45448;-65
2021/06/11 07:04:55;;;;;;;;;0.00;0.00;;;;;28.07;40.58;101546.19;5120761;27;45498;-63
2021/06/11 07:07:21;;;;;;;;;0.00;0.00;;;;;28.34;40.06;101557.66;5124141;27;46370;-64
2021/06/11 07:09:46;;;;;;;;;0.00;0.00;;;;;28.63;39.80;101550.84;5105590;27;45340;-65
2021/06/11 07:12:12;;;;;;;;;0.00;0.00;;;;;28.96;39.12;101560.53;5113529;27;45362;-64
2021/06/11 07:14:38;;;;;;;;;0.00;0.00;;;;;29.32;38.94;101564.41;5120573;27;45287;-64
2021/06/11 07:17:04;;;;;;;;;0.00;0.00;;;;;29.62;38.56;101565.31;5123625;27;47185;-65
2021/06/11 07:19:30;;;;;;;;;1.75;1.75;;;;;29.83;37.32;101561.34;5123892;27;45399;-65
2021/06/11 07:21:55;;;;;;;;;0.00;0.00;;;;;30.07;36.50;101556.03;5124081;27;45510;-64
2021/06/11 07:24:21;;;;;;;;;0.00;0.00;;;;;30.15;36.48;101563.00;5123862;27;45513;-64
2021/06/11 07:26:46;;;;;;;;;0.00;0.00;;;;;30.32;36.52;101563.22;5123191;27;46305;-64
2021/06/11 07:29:12;;;;;;;;;0.00;0.00;;;;;30.59;35.94;101561.75;5123943;27;45334;-64
2021/06/11 07:31:37;;;;;;;;;0.00;0.00;;;;;30.92;35.50;101559.59;5123751;27;45932;-63
2021/06/11 07:34:03;;;;;;;;;0.00;0.00;;;;;31.28;35.11;101556.63;5123918;27;45356;-64
2021/06/11 07:36:28;;;;;;;;;0.00;0.00;;;;;31.47;34.54;101556.53;5123130;27;46098;-64
2021/06/11 07:38:54;;;;;;;;;0.00;0.00;;;;;31.50;34.21;101557.94;5123387;27;45288;-64
2021/06/11 07:41:20;;;;;;;;;0.00;0.00;;;;;31.56;34.61;101552.38;5123904;27;45483;-64
2021/06/11 07:43:46;;;;;;;;;0.00;0.00;;;;;31.71;34.08;101557.31;5105325;27;45233;-64
2021/06/11 07:46:12;;;;;;;;;0.00;0.00;;;;;32.00;33.62;101563.59;5123108;27;45592;-64
2021/06/11 07:48:37;;;;;;;;;0.00;0.00;;;;;32.36;33.42;101566.16;5123013;27;45289;-64
2021/06/11 07:51:03;;;;;;;;;0.00;0.00;;;;;32.68;32.19;101561.03;5123980;27;45492;-65
2021/06/11 07:53:28;;;;;;;;;0.00;0.00;;;;;32.61;31.33;101574.75;5123709;27;45250;-64
2021/06/11 07:55:53;;;;;;;;;0.00;0.00;;;;;32.26;31.88;101566.78;5123340;27;46229;-64
2021/06/11 07:58:19;;;;;;;;;0.00;0.00;;;;;31.87;32.76;101575.53;5123376;27;45269;-65
2021/06/11 08:00:44;;;;;;;;;0.00;0.00;;;;;32.00;32.92;101573.63;5123855;27;45301;-64
2021/06/11 08:03:10;;;;;;;;;0.00;0.00;;;;;32.43;32.91;101573.06;5123358;27;45320;-63
2021/06/11 08:05:38;;;;;;;;;0.00;0.00;;;;;32.59;31.71;101571.50;5123503;27;45946;-65
2021/06/11 08:08:04;;;;;;;;;0.00;0.00;;;;;32.86;31.72;101565.38;5123426;27;45233;-64
2021/06/11 08:10:29;;;;;;;;;0.00;0.00;;;;;33.10;31.11;101575.03;5123461;27;45380;-64
2021/06/11 08:12:55;;;;;;;;;0.00;0.00;;;;;33.04;31.13;101567.81;5109532;27;45346;-65
2021/06/11 08:15:20;;;;;;;;;0.00;0.00;;;;;32.87;31.05;101577.91;5122627;27;45347;-64
2021/06/11 08:17:45;;;;;;;;;0.00;0.00;;;;;32.97;30.67;101577.25;5123009;27;45252;-64
2021/06/11 08:20:11;;;;;;;;;1.00;0.00;;;;;33.34;31.24;101580.25;5123575;27;45670;-64
2021/06/11 08:22:38;;;;;;;;;0.00;0.00;;;;;33.78;30.83;101585.78;5123196;27;45529;-65
2021/06/11 08:25:09;;;;;;;;;0.00;0.00;;;;;34.14;30.26;101590.81;5122929;27;46334;-63
2021/06/11 08:27:34;;;;;;;;;0.00;0.00;;;;;34.52;29.44;101593.38;5123187;27;45179;-64
2021/06/11 08:30:00;;;;;;;;;0.00;0.00;;;;;34.87;28.81;101599.41;5104390;27;45201;-64
2021/06/11 08:32:26;;;;;;;;;0.00;0.00;;;;;35.21;29.01;101588.22;5122839;27;45343;-63
2021/06/11 08:34:51;;;;;;;;;0.00;0.00;;;;;35.67;28.34;101591.19;5122855;27;46437;-65
2021/06/11 08:37:19;;;;;;;;;0.00;0.00;;;;;36.24;27.35;101593.00;5122804;27;45263;-65
2021/06/11 08:39:47;;;;;;;;;0.00;0.00;;;;;36.88;26.68;101591.66;5122349;27;45437;-63
2021/06/11 08:42:13;;;;;;;;;0.00;0.00;;;;;37.60;25.99;101594.25;5122990;27;45278;-63
2021/06/11 08:44:41;;;;;;;;;0.00;0.00;;;;;38.42;25.06;101596.53;5123025;27;45279;-64
2021/06/11 08:47:07;;;;;;;;;0.00;0.00;;;;;39.77;24.38;101595.72;5122977;27;45298;-64
2021/06/11 08:49:33;;;;;;;;;0.00;0.00;;;;;41.05;22.03;101589.31;5123074;27;45333;-64
2021/06/11 08:52:02;;;;;;;;;0.00;0.00;;;;;42.27;21.42;101598.84;5122841;27;45270;-65
2021/06/11 08:54:28;;;;;;;;;0.00;0.00;;;;;43.38;19.16;101605.34;5122359;27;45366;-64
2021/06/11 08:56:53;;;;;;;;;0.00;0.00;;;;;44.45;18.60;101597.59;5122071;27;45229;-64
2021/06/11 08:59:19;;;;;;;;;0.00;0.00;;;;;45.75;17.69;101587.91;5122644;27;45264;-64
2021/06/11 09:01:45;;;;;;;;;0.00;0.00;;;;;46.88;16.69;101590.72;5122439;27;45167;-64
2021/06/11 09:04:10;;;;;;;;;0.00;0.00;;;;;47.87;15.82;101595.00;5122052;27;45693;-64
2021/06/11 09:06:36;;;;;;;;;0.00;0.00;;;;;48.85;15.29;101588.91;5122683;27;45216;-63
2021/06/11 09:09:03;;;;;;;;;0.00;0.00;;;;;50.11;14.05;101590.91;5122595;27;45389;-65
2021/06/11 09:11:31;;;;;;;;;0.00;0.00;;;;;51.02;13.67;101589.28;5118270;27;45324;-64
2021/06/11 09:14:07;;;;;;;;;0.00;0.00;;;;;51.95;12.54;101586.94;5112657;27;45503;-64
2021/06/11 09:16:47;;;;;;;;;0.00;0.00;;;;;52.28;12.21;101588.91;5121625;27;45216;-63
2021/06/11 09:19:19;;;;;;;;;0.00;0.00;;;;;53.04;11.55;101588.31;5122270;27;45387;-65
2021/06/11 09:21:48;;;;;;;;;0.00;0.00;;;;;53.62;11.81;101577.41;5122392;27;46302;-65
2021/06/11 09:24:27;;;;;;;;;0.00;0.00;;;;;53.95;10.54;101583.94;5121692;27;45384;-64
2021/06/11 09:27:03;;;;;;;;;0.00;0.00;;;;;54.40;11.20;101578.78;5121485;27;45191;-64
2021/06/11 09:29:32;;;;;;;;;0.00;0.00;;;;;54.80;10.36;101574.78;5121387;27;45435;-64
2021/06/11 09:32:23;;;;;;;;;0.00;0.00;;;;;54.64;10.46;101572.34;5122202;27;45378;-64
2021/06/11 09:34:53;;;;;;;;;0.00;0.00;;;;;54.31;11.02;101565.13;5121604;27;46013;-63
2021/06/11 09:37:26;;;;;;;;;0.00;0.00;;;;;53.52;10.07;101564.16;5122290;27;45409;-64
2021/06/11 09:40:05;;;;;;;;;0.00;0.00;;;;;52.63;10.81;101566.00;5122095;27;45508;-64
2021/06/11 09:42:33;;;;;;;;;0.00;0.00;;;;;51.78;11.34;101568.78;5121964;27;45335;-64
2021/06/11 09:45:01;;;;;;;;;0.00;0.00;;;;;51.07;11.85;101569.38;5121601;27;45582;-64
2021/06/11 09:47:43;;;;;;;;;0.00;0.00;;;;;50.65;12.18;101559.97;5121382;27;45367;-64
2021/06/11 09:50:19;;;;;;;;;0.00;0.00;;;;;50.48;12.21;101558.47;5121548;27;45415;-65
2021/06/11 09:52:56;;;;;;;;;0.00;0.00;;;;;50.40;12.17;101570.72;5121784;27;45245;-65
2021/06/11 09:55:41;;;;;;;;;0.00;0.00;;;;;50.32;12.41;101557.75;5102583;27;47767;-64
2021/06/11 09:58:22;;;;;;;;;0.00;0.00;;;;;50.03;12.77;101560.03;5120896;27;45365;-64
2021/06/11 10:00:54;;;;;;;;;0.00;0.00;;;;;49.71;12.50;101559.41;5121322;27;45257;-64
2021/06/11 10:03:25;;;;;;;;;0.00;0.00;;;;;49.49;12.71;101560.94;5121425;27;45309;-65
2021/06/11 10:05:52;;;;;;;;;0.00;0.00;;;;;49.41;12.62;101559.16;5120828;27;46878;-65
2021/06/11 10:08:20;;;;;;;;;0.00;0.00;;;;;49.50;12.92;101554.16;5121545;27;45451;-65
2021/06/11 10:10:47;;;;;;;;;0.00;0.00;;;;;49.84;12.51;101552.47;5120693;27;45288;-64
2021/06/11 10:13:14;;;;;;;;;0.00;0.00;;;;;50.28;12.42;101565.28;5119682;27;45301;-66
2021/06/11 10:15:42;;;;;;;;;0.00;0.00;;;;;51.22;11.65;101567.63;5121297;27;45349;-65
2021/06/11 10:18:08;;;;;;;;;0.00;0.00;;;;;52.52;10.22;101558.72;5121379;27;45442;-64
2021/06/11 10:20:34;;;;;;;;;0.00;0.00;;;;;53.50;9.69;101558.91;5121437;27;45517;-64
2021/06/11 10:23:00;;;;;;;;;0.00;0.00;;;;;54.33;9.91;101562.72;5121063;27;45322;-66
2021/06/11 10:25:26;;;;;;;;;0.00;0.00;;;;;54.93;8.74;101554.63;5101807;27;48045;-65
2021/06/11 10:27:52;;;;;;;;;0.00;0.00;;;;;55.09;8.81;101567.06;5120699;27;45377;-65
2021/06/11 10:30:18;;;;;;;;;0.00;0.00;;;;;55.17;8.74;101561.41;5120501;27;45222;-64
2021/06/11 10:32:47;;;;;;;;;0.00;0.00;;;;;55.22;8.53;101564.63;5121310;27;45427;-64
2021/06/11 10:35:33;;;;;;;;;0.00;0.00;;;;;55.39;8.23;101559.31;5120853;27;45528;-65
2021/06/11 10:37:58;;;;;;;;;0.00;0.00;;;;;55.03;8.54;101562.25;5120954;27;45333;-64
2021/06/11 10:40:33;;;;;;;;;0.00;0.00;;;;;54.30;9.05;101558.72;5122129;27;45540;-64
2021/06/11 10:43:20;;;;;;;;;0.00;0.00;;;;;52.68;9.42;101542.38;5125224;27;45395;-65
2021/06/11 10:45:46;;;;;;;;;0.00;0.00;;;;;50.86;11.18;101548.31;5105614;27;47657;-65
2021/06/11 10:48:11;;;;;;;;;0.00;0.00;;;;;49.38;12.29;101540.34;5124279;27;45277;-64
2021/06/11 10:50:38;;;;;;;;;0.00;0.00;;;;;48.38;12.39;101536.75;5124222;27;45152;-65
2021/06/11 10:53:12;;;;;;;;;0.00;0.00;;;;;47.26;12.96;101531.97;5123732;27;45525;-65
2021/06/11 10:55:51;;;;;;;;;0.00;0.00;;;;;46.14;13.82;101535.81;5123547;27;46189;-64
2021/06/11 10:58:16;;;;;;;;;0.00;0.00;;;;;45.26;14.55;101539.63;5123908;27;45198;-64
2021/06/11 11:00:42;;;;;;;;;0.00;0.00;;;;;44.92;14.91;101542.22;5124290;27;45306;-65
2021/06/11 11:03:23;;;;;;;;;0.00;0.00;;;;;44.56;14.74;101535.19;5123745;27;45446;-64
2021/06/11 11:05:48;;;;;;;;;0.00;0.00;;;;;44.10;14.94;101527.63;5123570;27;45348;-64
2021/06/11 11:08:14;;;;;;;;;0.00;0.00;;;;;43.91;15.82;101527.94;5123945;27;45420;-64
2021/06/11 11:10:47;;;;;;;;;0.00;0.00;;;;;43.78;15.92;101522.28;5123818;27;45673;-66
2021/06/11 11:13:25;;;;;;;;;0.00;0.00;;;;;43.62;15.80;101513.59;5103483;27;45213;-66
2021/06/11 11:15:52;;;;;;;;;0.00;0.00;;;;;43.13;16.15;101514.81;5102996;27;45531;-65
2021/06/11 11:18:24;;;;;;;;;0.00;0.00;;;;;42.40;16.20;101515.97;5103139;27;45442;-63
2021/06/11 11:20:51;;;;;;;;;0.00;0.00;;;;;41.91;17.52;101519.69;5103371;27;45522;-66
2021/06/11 11:23:19;;;;;;;;;0.00;0.00;;;;;41.44;17.54;101516.31;5085084;27;45395;-65
2021/06/11 11:25:46;;;;;;;;;0.00;0.00;;;;;40.98;18.12;101515.34;5118291;27;46275;-64
2021/06/11 11:28:13;;;;;;;;;0.00;0.00;;;;;40.50;18.41;101508.22;5123905;27;45292;-66
2021/06/11 11:30:41;;;;;;;;;0.00;0.00;;;;;40.11;18.88;101520.44;5123317;27;45230;-67